sensor_id;sensor_type;location;lat;lon;timestamp;P1;durP1;ratioP1;P2;durP2;ratioP2
50900;SDS011;36879;51.416;6.678;2023-02-28T00:01:04;12.98;;;5.57;;
50900;SDS011;36879;51.416;6.678;2023-02-28T00:03:30;8.20;;;5.45;;
50900;SDS011;36879;51.416;6.678;2023-02-28T00:05:59;10.05;;;5.38;;
50900;SDS011;36879;51.416;6.678;2023-02-28T00:08:25;10.15;;;4.50;;
50900;SDS011;36879;51.416;6.678;2023-02-28T00:10:52;10.63;;;5.43;;
50900;SDS011;36879;51.416;6.678;2023-02-28T00:13:17;11.30;;;5.05;;
50900;SDS011;36879;51.416;6.678;2023-02-28T00:15:43;10.65;;;5.72;;
50900;SDS011;36879;51.416;6.678;2023-02-28T00:18:10;11.82;;;6.35;;
50900;SDS011;36879;51.416;6.678;2023-02-28T00:20:36;11.00;;;5.45;;
50900;SDS011;36879;51.416;6.678;2023-02-28T00:23:03;14.95;;;6.32;;
50900;SDS011;36879;51.416;6.678;2023-02-28T00:25:28;13.32;;;6.32;;
50900;SDS011;36879;51.416;6.678;2023-02-28T00:27:54;13.90;;;6.43;;
50900;SDS011;36879;51.416;6.678;2023-02-28T00:30:21;12.55;;;6.78;;
50900;SDS011;36879;51.416;6.678;2023-02-28T00:32:47;10.93;;;5.45;;
50900;SDS011;36879;51.416;6.678;2023-02-28T00:35:14;11.45;;;6.15;;
50900;SDS011;36879;51.416;6.678;2023-02-28T00:37:40;9.20;;;5.53;;
50900;SDS011;36879;51.416;6.678;2023-02-28T00:40:06;9.20;;;5.05;;
50900;SDS011;36879;51.416;6.678;2023-02-28T00:42:36;12.48;;;5.18;;
50900;SDS011;36879;51.416;6.678;2023-02-28T00:45:02;8.02;;;5.07;;
50900;SDS011;36879;51.416;6.678;2023-02-28T00:47:29;9.98;;;5.70;;
50900;SDS011;36879;51.416;6.678;2023-02-28T00:49:55;13.13;;;6.15;;
50900;SDS011;36879;51.416;6.678;2023-02-28T00:52:21;13.40;;;5.63;;
50900;SDS011;36879;51.416;6.678;2023-02-28T00:54:47;10.57;;;5.88;;
50900;SDS011;36879;51.416;6.678;2023-02-28T00:57:13;10.43;;;6.03;;
50900;SDS011;36879;51.416;6.678;2023-02-28T00:59:39;9.75;;;6.18;;
50900;SDS011;36879;51.416;6.678;2023-02-28T01:02:05;11.68;;;6.40;;
50900;SDS011;36879;51.416;6.678;2023-02-28T01:04:31;9.70;;;5.47;;
50900;SDS011;36879;51.416;6.678;2023-02-28T01:06:57;15.82;;;5.40;;
50900;SDS011;36879;51.416;6.678;2023-02-28T01:09:23;13.18;;;6.38;;
50900;SDS011;36879;51.416;6.678;2023-02-28T01:11:49;14.52;;;5.95;;
50900;SDS011;36879;51.416;6.678;2023-02-28T01:14:15;8.95;;;5.78;;
50900;SDS011;36879;51.416;6.678;2023-02-28T01:16:42;10.25;;;5.43;;
50900;SDS011;36879;51.416;6.678;2023-02-28T01:19:08;8.02;;;5.25;;
50900;SDS011;36879;51.416;6.678;2023-02-28T01:21:34;9.23;;;5.38;;
50900;SDS011;36879;51.416;6.678;2023-02-28T01:24:01;11.40;;;5.03;;
50900;SDS011;36879;51.416;6.678;2023-02-28T01:26:27;8.55;;;5.57;;
50900;SDS011;36879;51.416;6.678;2023-02-28T01:28:53;8.70;;;6.07;;
50900;SDS011;36879;51.416;6.678;2023-02-28T01:31:19;17.63;;;6.65;;
50900;SDS011;36879;51.416;6.678;2023-02-28T01:33:46;10.18;;;5.82;;
50900;SDS011;36879;51.416;6.678;2023-02-28T01:36:16;10.77;;;4.95;;
50900;SDS011;36879;51.416;6.678;2023-02-28T01:38:43;7.30;;;4.57;;
50900;SDS011;36879;51.416;6.678;2023-02-28T01:41:09;9.70;;;5.32;;
50900;SDS011;36879;51.416;6.678;2023-02-28T01:46:10;8.45;;;5.30;;
50900;SDS011;36879;51.416;6.678;2023-02-28T01:48:40;8.50;;;5.30;;
50900;SDS011;36879;51.416;6.678;2023-02-28T01:51:09;9.20;;;4.55;;
50900;SDS011;36879;51.416;6.678;2023-02-28T01:53:41;7.05;;;4.50;;
50900;SDS011;36879;51.416;6.678;2023-02-28T01:56:09;7.90;;;4.43;;
50900;SDS011;36879;51.416;6.678;2023-02-28T01:58:37;8.57;;;4.25;;
50900;SDS011;36879;51.416;6.678;2023-02-28T02:01:03;9.73;;;4.28;;
50900;SDS011;36879;51.416;6.678;2023-02-28T02:03:30;9.38;;;4.57;;
50900;SDS011;36879;51.416;6.678;2023-02-28T02:05:57;13.07;;;4.60;;
50900;SDS011;36879;51.416;6.678;2023-02-28T02:08:24;9.20;;;4.50;;
50900;SDS011;36879;51.416;6.678;2023-02-28T02:10:58;12.13;;;3.90;;
50900;SDS011;36879;51.416;6.678;2023-02-28T02:34:58;8.40;;;4.05;;
50900;SDS011;36879;51.416;6.678;2023-02-28T02:36:52;6.95;;;3.80;;
50900;SDS011;36879;51.416;6.678;2023-02-28T02:41:54;6.47;;;3.60;;
50900;SDS011;36879;51.416;6.678;2023-02-28T02:47:22;7.72;;;4.53;;
50900;SDS011;36879;51.416;6.678;2023-02-28T02:49:54;7.65;;;4.32;;
50900;SDS011;36879;51.416;6.678;2023-02-28T02:52:23;7.95;;;3.45;;
50900;SDS011;36879;51.416;6.678;2023-02-28T02:54:50;8.38;;;4.15;;
50900;SDS011;36879;51.416;6.678;2023-02-28T02:58:01;5.78;;;3.08;;
50900;SDS011;36879;51.416;6.678;2023-02-28T03:00:07;4.90;;;2.92;;
50900;SDS011;36879;51.416;6.678;2023-02-28T03:02:34;4.95;;;2.92;;
50900;SDS011;36879;51.416;6.678;2023-02-28T03:05:03;7.07;;;3.30;;
50900;SDS011;36879;51.416;6.678;2023-02-28T03:07:30;6.95;;;3.28;;
50900;SDS011;36879;51.416;6.678;2023-02-28T03:09:56;8.43;;;3.85;;
50900;SDS011;36879;51.416;6.678;2023-02-28T03:12:41;7.35;;;3.15;;
50900;SDS011;36879;51.416;6.678;2023-02-28T03:15:14;7.82;;;3.55;;
50900;SDS011;36879;51.416;6.678;2023-02-28T03:20:21;7.88;;;3.42;;
50900;SDS011;36879;51.416;6.678;2023-02-28T03:32:42;9.80;;;5.18;;
50900;SDS011;36879;51.416;6.678;2023-02-28T03:35:14;10.90;;;4.90;;
50900;SDS011;36879;51.416;6.678;2023-02-28T03:37:47;7.97;;;3.63;;
50900;SDS011;36879;51.416;6.678;2023-02-28T03:40:25;8.88;;;4.97;;
50900;SDS011;36879;51.416;6.678;2023-02-28T03:42:54;14.38;;;5.10;;
50900;SDS011;36879;51.416;6.678;2023-02-28T03:45:26;7.10;;;4.35;;
50900;SDS011;36879;51.416;6.678;2023-02-28T03:47:56;8.70;;;5.25;;
50900;SDS011;36879;51.416;6.678;2023-02-28T03:53:00;7.75;;;5.28;;
50900;SDS011;36879;51.416;6.678;2023-02-28T03:55:30;10.15;;;4.47;;
50900;SDS011;36879;51.416;6.678;2023-02-28T03:57:59;14.38;;;5.25;;
50900;SDS011;36879;51.416;6.678;2023-02-28T04:00:28;7.28;;;4.30;;
50900;SDS011;36879;51.416;6.678;2023-02-28T04:02:55;9.60;;;5.32;;
50900;SDS011;36879;51.416;6.678;2023-02-28T04:05:22;7.05;;;4.97;;
50900;SDS011;36879;51.416;6.678;2023-02-28T04:07:48;7.85;;;4.40;;
50900;SDS011;36879;51.416;6.678;2023-02-28T04:10:14;10.35;;;5.65;;
50900;SDS011;36879;51.416;6.678;2023-02-28T04:12:40;10.48;;;4.50;;
50900;SDS011;36879;51.416;6.678;2023-02-28T04:15:07;6.97;;;4.22;;
50900;SDS011;36879;51.416;6.678;2023-02-28T04:17:33;7.88;;;5.20;;
50900;SDS011;36879;51.416;6.678;2023-02-28T04:19:59;14.30;;;5.25;;
50900;SDS011;36879;51.416;6.678;2023-02-28T04:22:25;10.13;;;5.05;;
50900;SDS011;36879;51.416;6.678;2023-02-28T04:24:51;10.57;;;4.72;;
50900;SDS011;36879;51.416;6.678;2023-02-28T04:27:19;9.75;;;4.20;;
50900;SDS011;36879;51.416;6.678;2023-02-28T04:29:45;10.25;;;4.90;;
50900;SDS011;36879;51.416;6.678;2023-02-28T04:32:11;9.27;;;4.38;;
50900;SDS011;36879;51.416;6.678;2023-02-28T04:34:37;12.05;;;4.65;;
50900;SDS011;36879;51.416;6.678;2023-02-28T04:37:03;9.05;;;4.20;;
50900;SDS011;36879;51.416;6.678;2023-02-28T04:39:29;9.23;;;4.45;;
50900;SDS011;36879;51.416;6.678;2023-02-28T04:41:55;11.05;;;4.25;;
50900;SDS011;36879;51.416;6.678;2023-02-28T04:47:18;8.70;;;4.72;;
50900;SDS011;36879;51.416;6.678;2023-02-28T04:49:44;7.13;;;4.20;;
50900;SDS011;36879;51.416;6.678;2023-02-28T04:52:10;10.52;;;4.97;;
50900;SDS011;36879;51.416;6.678;2023-02-28T04:54:38;9.73;;;4.72;;
50900;SDS011;36879;51.416;6.678;2023-02-28T04:57:04;9.50;;;5.03;;
50900;SDS011;36879;51.416;6.678;2023-02-28T04:59:30;9.02;;;5.63;;
50900;SDS011;36879;51.416;6.678;2023-02-28T05:01:57;11.70;;;4.97;;
50900;SDS011;36879;51.416;6.678;2023-02-28T05:04:23;11.35;;;4.35;;
50900;SDS011;36879;51.416;6.678;2023-02-28T05:06:49;9.10;;;4.43;;
50900;SDS011;36879;51.416;6.678;2023-02-28T05:09:15;9.05;;;4.68;;
50900;SDS011;36879;51.416;6.678;2023-02-28T05:11:41;10.38;;;5.22;;
50900;SDS011;36879;51.416;6.678;2023-02-28T05:14:11;10.60;;;5.15;;
50900;SDS011;36879;51.416;6.678;2023-02-28T05:16:37;12.70;;;5.25;;
50900;SDS011;36879;51.416;6.678;2023-02-28T05:19:03;12.60;;;6.40;;
50900;SDS011;36879;51.416;6.678;2023-02-28T05:21:30;10.90;;;5.18;;
50900;SDS011;36879;51.416;6.678;2023-02-28T05:24:00;12.38;;;5.03;;
50900;SDS011;36879;51.416;6.678;2023-02-28T05:26:28;9.32;;;4.38;;
50900;SDS011;36879;51.416;6.678;2023-02-28T05:28:54;11.10;;;5.50;;
50900;SDS011;36879;51.416;6.678;2023-02-28T05:31:20;8.05;;;4.57;;
50900;SDS011;36879;51.416;6.678;2023-02-28T05:33:46;13.00;;;5.07;;
50900;SDS011;36879;51.416;6.678;2023-02-28T05:36:12;8.02;;;4.70;;
50900;SDS011;36879;51.416;6.678;2023-02-28T05:38:39;12.65;;;5.10;;
50900;SDS011;36879;51.416;6.678;2023-02-28T05:41:05;10.90;;;5.22;;
50900;SDS011;36879;51.416;6.678;2023-02-28T05:43:32;13.30;;;5.05;;
50900;SDS011;36879;51.416;6.678;2023-02-28T05:45:58;9.90;;;5.32;;
50900;SDS011;36879;51.416;6.678;2023-02-28T05:48:24;11.05;;;4.43;;
50900;SDS011;36879;51.416;6.678;2023-02-28T05:50:50;11.38;;;4.75;;
50900;SDS011;36879;51.416;6.678;2023-02-28T05:53:16;14.40;;;4.75;;
50900;SDS011;36879;51.416;6.678;2023-02-28T05:55:42;12.10;;;4.25;;
50900;SDS011;36879;51.416;6.678;2023-02-28T05:58:08;9.95;;;4.90;;
50900;SDS011;36879;51.416;6.678;2023-02-28T06:00:34;7.55;;;4.57;;
50900;SDS011;36879;51.416;6.678;2023-02-28T06:03:00;8.50;;;4.88;;
50900;SDS011;36879;51.416;6.678;2023-02-28T06:05:26;6.97;;;4.03;;
50900;SDS011;36879;51.416;6.678;2023-02-28T06:07:53;9.32;;;4.82;;
50900;SDS011;36879;51.416;6.678;2023-02-28T06:10:19;15.82;;;4.60;;
50900;SDS011;36879;51.416;6.678;2023-02-28T06:12:45;12.88;;;4.90;;
50900;SDS011;36879;51.416;6.678;2023-02-28T06:15:14;9.10;;;3.95;;
50900;SDS011;36879;51.416;6.678;2023-02-28T06:17:42;12.10;;;6.28;;
50900;SDS011;36879;51.416;6.678;2023-02-28T06:20:08;10.05;;;5.18;;
50900;SDS011;36879;51.416;6.678;2023-02-28T06:22:35;7.88;;;4.55;;
50900;SDS011;36879;51.416;6.678;2023-02-28T06:25:02;9.32;;;4.88;;
50900;SDS011;36879;51.416;6.678;2023-02-28T06:27:28;11.65;;;5.00;;
50900;SDS011;36879;51.416;6.678;2023-02-28T06:29:54;10.32;;;4.40;;
50900;SDS011;36879;51.416;6.678;2023-02-28T06:32:21;8.38;;;4.15;;
50900;SDS011;36879;51.416;6.678;2023-02-28T06:34:47;7.05;;;4.13;;
50900;SDS011;36879;51.416;6.678;2023-02-28T06:37:13;11.02;;;4.90;;
50900;SDS011;36879;51.416;6.678;2023-02-28T06:39:40;8.38;;;4.82;;
50900;SDS011;36879;51.416;6.678;2023-02-28T06:42:06;9.65;;;5.07;;
50900;SDS011;36879;51.416;6.678;2023-02-28T06:44:31;11.30;;;4.38;;
50900;SDS011;36879;51.416;6.678;2023-02-28T06:47:00;13.90;;;4.82;;
50900;SDS011;36879;51.416;6.678;2023-02-28T06:49:28;7.07;;;4.20;;
50900;SDS011;36879;51.416;6.678;2023-02-28T06:51:54;16.60;;;5.00;;
50900;SDS011;36879;51.416;6.678;2023-02-28T06:54:20;10.55;;;5.38;;
50900;SDS011;36879;51.416;6.678;2023-02-28T06:56:46;11.88;;;5.45;;
50900;SDS011;36879;51.416;6.678;2023-02-28T06:59:12;11.38;;;5.13;;
50900;SDS011;36879;51.416;6.678;2023-02-28T07:01:38;14.35;;;5.15;;
50900;SDS011;36879;51.416;6.678;2023-02-28T07:04:04;11.40;;;4.22;;
50900;SDS011;36879;51.416;6.678;2023-02-28T07:06:30;13.48;;;5.32;;
50900;SDS011;36879;51.416;6.678;2023-02-28T07:08:57;10.00;;;4.82;;
50900;SDS011;36879;51.416;6.678;2023-02-28T07:11:23;10.65;;;3.70;;
50900;SDS011;36879;51.416;6.678;2023-02-28T07:13:53;7.05;;;3.60;;
50900;SDS011;36879;51.416;6.678;2023-02-28T07:16:20;7.30;;;4.53;;
50900;SDS011;36879;51.416;6.678;2023-02-28T07:18:47;7.72;;;3.85;;
50900;SDS011;36879;51.416;6.678;2023-02-28T07:21:13;6.57;;;3.88;;
50900;SDS011;36879;51.416;6.678;2023-02-28T07:23:40;11.07;;;3.90;;
50900;SDS011;36879;51.416;6.678;2023-02-28T07:26:07;8.98;;;4.82;;
50900;SDS011;36879;51.416;6.678;2023-02-28T07:28:36;4.60;;;3.10;;
50900;SDS011;36879;51.416;6.678;2023-02-28T07:31:06;6.60;;;3.20;;
50900;SDS011;36879;51.416;6.678;2023-02-28T07:33:33;8.57;;;3.05;;
50900;SDS011;36879;51.416;6.678;2023-02-28T07:36:07;9.50;;;3.88;;
50900;SDS011;36879;51.416;6.678;2023-02-28T07:38:34;8.10;;;3.70;;
50900;SDS011;36879;51.416;6.678;2023-02-28T07:41:00;7.15;;;3.55;;
50900;SDS011;36879;51.416;6.678;2023-02-28T07:43:29;7.63;;;3.20;;
50900;SDS011;36879;51.416;6.678;2023-02-28T07:45:55;9.07;;;4.00;;
50900;SDS011;36879;51.416;6.678;2023-02-28T07:48:21;7.55;;;3.95;;
50900;SDS011;36879;51.416;6.678;2023-02-28T07:50:54;7.97;;;3.80;;
50900;SDS011;36879;51.416;6.678;2023-02-28T07:53:20;6.47;;;3.60;;
50900;SDS011;36879;51.416;6.678;2023-02-28T07:55:46;11.23;;;3.30;;
50900;SDS011;36879;51.416;6.678;2023-02-28T07:58:12;9.35;;;3.95;;
50900;SDS011;36879;51.416;6.678;2023-02-28T08:00:38;6.97;;;3.95;;
50900;SDS011;36879;51.416;6.678;2023-02-28T08:03:04;8.93;;;3.67;;
50900;SDS011;36879;51.416;6.678;2023-02-28T08:05:30;6.40;;;3.28;;
50900;SDS011;36879;51.416;6.678;2023-02-28T08:07:56;7.35;;;4.15;;
50900;SDS011;36879;51.416;6.678;2023-02-28T08:10:22;8.13;;;3.78;;
50900;SDS011;36879;51.416;6.678;2023-02-28T08:12:49;8.20;;;4.50;;
50900;SDS011;36879;51.416;6.678;2023-02-28T08:15:15;6.55;;;4.72;;
50900;SDS011;36879;51.416;6.678;2023-02-28T08:17:41;7.95;;;3.30;;
50900;SDS011;36879;51.416;6.678;2023-02-28T08:20:07;6.47;;;3.35;;
50900;SDS011;36879;51.416;6.678;2023-02-28T08:22:35;7.43;;;3.40;;
50900;SDS011;36879;51.416;6.678;2023-02-28T08:25:01;8.38;;;3.25;;
50900;SDS011;36879;51.416;6.678;2023-02-28T08:27:27;5.93;;;2.42;;
50900;SDS011;36879;51.416;6.678;2023-02-28T08:29:53;5.20;;;3.40;;
50900;SDS011;36879;51.416;6.678;2023-02-28T08:32:19;5.18;;;2.47;;
50900;SDS011;36879;51.416;6.678;2023-02-28T08:34:45;5.78;;;2.90;;
50900;SDS011;36879;51.416;6.678;2023-02-28T08:37:11;4.25;;;2.92;;
50900;SDS011;36879;51.416;6.678;2023-02-28T08:39:37;6.63;;;2.90;;
50900;SDS011;36879;51.416;6.678;2023-02-28T08:42:03;4.68;;;2.40;;
50900;SDS011;36879;51.416;6.678;2023-02-28T08:44:29;5.78;;;2.28;;
50900;SDS011;36879;51.416;6.678;2023-02-28T08:46:55;3.83;;;2.33;;
50900;SDS011;36879;51.416;6.678;2023-02-28T08:49:21;9.65;;;2.85;;
50900;SDS011;36879;51.416;6.678;2023-02-28T08:51:47;3.47;;;1.95;;
50900;SDS011;36879;51.416;6.678;2023-02-28T08:54:13;4.25;;;2.15;;
50900;SDS011;36879;51.416;6.678;2023-02-28T08:56:44;5.40;;;2.40;;
50900;SDS011;36879;51.416;6.678;2023-02-28T08:59:10;7.07;;;3.05;;
50900;SDS011;36879;51.416;6.678;2023-02-28T09:01:40;5.95;;;2.35;;
50900;SDS011;36879;51.416;6.678;2023-02-28T09:04:06;5.47;;;2.38;;
50900;SDS011;36879;51.416;6.678;2023-02-28T09:06:34;5.45;;;2.45;;
50900;SDS011;36879;51.416;6.678;2023-02-28T09:09:00;5.25;;;2.15;;
50900;SDS011;36879;51.416;6.678;2023-02-28T09:11:28;4.50;;;1.75;;
50900;SDS011;36879;51.416;6.678;2023-02-28T09:13:54;5.35;;;1.77;;
50900;SDS011;36879;51.416;6.678;2023-02-28T09:16:24;4.25;;;2.17;;
50900;SDS011;36879;51.416;6.678;2023-02-28T09:18:50;3.20;;;1.88;;
50900;SDS011;36879;51.416;6.678;2023-02-28T09:21:17;5.30;;;1.98;;
50900;SDS011;36879;51.416;6.678;2023-02-28T09:23:44;3.28;;;1.65;;
50900;SDS011;36879;51.416;6.678;2023-02-28T09:26:16;4.13;;;2.10;;
50900;SDS011;36879;51.416;6.678;2023-02-28T09:28:43;4.95;;;2.40;;
50900;SDS011;36879;51.416;6.678;2023-02-28T09:31:13;4.35;;;2.00;;
50900;SDS011;36879;51.416;6.678;2023-02-28T09:33:39;4.72;;;2.22;;
50900;SDS011;36879;51.416;6.678;2023-02-28T09:36:06;2.83;;;1.70;;
50900;SDS011;36879;51.416;6.678;2023-02-28T09:38:32;4.53;;;2.15;;
50900;SDS011;36879;51.416;6.678;2023-02-28T09:40:59;3.28;;;1.98;;
50900;SDS011;36879;51.416;6.678;2023-02-28T09:43:27;7.15;;;2.90;;
50900;SDS011;36879;51.416;6.678;2023-02-28T09:45:56;3.88;;;1.70;;
50900;SDS011;36879;51.416;6.678;2023-02-28T09:48:27;7.43;;;2.10;;
50900;SDS011;36879;51.416;6.678;2023-02-28T09:50:59;4.72;;;1.73;;
50900;SDS011;36879;51.416;6.678;2023-02-28T09:53:27;3.03;;;1.50;;
50900;SDS011;36879;51.416;6.678;2023-02-28T09:55:58;5.60;;;2.45;;
50900;SDS011;36879;51.416;6.678;2023-02-28T09:58:29;5.70;;;1.92;;
50900;SDS011;36879;51.416;6.678;2023-02-28T10:01:06;3.45;;;2.15;;
50900;SDS011;36879;51.416;6.678;2023-02-28T10:03:39;3.25;;;2.28;;
50900;SDS011;36879;51.416;6.678;2023-02-28T10:08:45;5.32;;;2.10;;
50900;SDS011;36879;51.416;6.678;2023-02-28T10:11:15;4.28;;;2.15;;
50900;SDS011;36879;51.416;6.678;2023-02-28T10:13:50;7.32;;;2.35;;
50900;SDS011;36879;51.416;6.678;2023-02-28T10:16:20;6.18;;;2.50;;
50900;SDS011;36879;51.416;6.678;2023-02-28T10:18:47;4.05;;;1.60;;
50900;SDS011;36879;51.416;6.678;2023-02-28T10:21:21;2.67;;;1.38;;
50900;SDS011;36879;51.416;6.678;2023-02-28T10:23:50;2.92;;;1.52;;
50900;SDS011;36879;51.416;6.678;2023-02-28T10:26:18;7.53;;;1.85;;
50900;SDS011;36879;51.416;6.678;2023-02-28T10:28:44;3.95;;;1.70;;
50900;SDS011;36879;51.416;6.678;2023-02-28T10:31:11;3.95;;;1.60;;
50900;SDS011;36879;51.416;6.678;2023-02-28T10:33:39;5.20;;;1.52;;
50900;SDS011;36879;51.416;6.678;2023-02-28T10:36:05;4.18;;;1.80;;
50900;SDS011;36879;51.416;6.678;2023-02-28T10:38:36;6.47;;;1.92;;
50900;SDS011;36879;51.416;6.678;2023-02-28T10:41:07;3.20;;;1.58;;
50900;SDS011;36879;51.416;6.678;2023-02-28T10:43:33;2.83;;;1.58;;
50900;SDS011;36879;51.416;6.678;2023-02-28T11:02:47;3.35;;;1.45;;
50900;SDS011;36879;51.416;6.678;2023-02-28T11:05:30;3.75;;;1.33;;
50900;SDS011;36879;51.416;6.678;2023-02-28T11:08:10;2.63;;;1.80;;
50900;SDS011;36879;51.416;6.678;2023-02-28T11:10:37;4.05;;;1.60;;
50900;SDS011;36879;51.416;6.678;2023-02-28T11:13:03;2.20;;;1.25;;
50900;SDS011;36879;51.416;6.678;2023-02-28T11:15:31;3.42;;;1.45;;
50900;SDS011;36879;51.416;6.678;2023-02-28T11:20:25;3.85;;;1.63;;
50900;SDS011;36879;51.416;6.678;2023-02-28T11:22:51;2.58;;;1.40;;
50900;SDS011;36879;51.416;6.678;2023-02-28T11:25:26;3.10;;;1.40;;
50900;SDS011;36879;51.416;6.678;2023-02-28T11:27:55;3.83;;;1.48;;
50900;SDS011;36879;51.416;6.678;2023-02-28T11:30:26;4.60;;;1.70;;
50900;SDS011;36879;51.416;6.678;2023-02-28T11:32:52;1.70;;;1.10;;
50900;SDS011;36879;51.416;6.678;2023-02-28T11:35:39;4.45;;;1.35;;
50900;SDS011;36879;51.416;6.678;2023-02-28T11:56:27;3.30;;;1.45;;
50900;SDS011;36879;51.416;6.678;2023-02-28T11:59:34;4.90;;;1.75;;
50900;SDS011;36879;51.416;6.678;2023-02-28T12:02:02;2.95;;;1.77;;
50900;SDS011;36879;51.416;6.678;2023-02-28T12:07:16;2.17;;;1.40;;
50900;SDS011;36879;51.416;6.678;2023-02-28T12:10:00;1.98;;;1.00;;
50900;SDS011;36879;51.416;6.678;2023-02-28T12:15:12;3.47;;;1.50;;
50900;SDS011;36879;51.416;6.678;2023-02-28T12:20:26;2.20;;;1.45;;
50900;SDS011;36879;51.416;6.678;2023-02-28T12:25:21;2.92;;;1.38;;
50900;SDS011;36879;51.416;6.678;2023-02-28T12:27:48;4.63;;;1.73;;
50900;SDS011;36879;51.416;6.678;2023-02-28T12:32:45;2.55;;;1.67;;
50900;SDS011;36879;51.416;6.678;2023-02-28T12:35:12;6.47;;;1.50;;
50900;SDS011;36879;51.416;6.678;2023-02-28T12:37:45;2.28;;;1.25;;
50900;SDS011;36879;51.416;6.678;2023-02-28T12:40:18;3.28;;;1.73;;
50900;SDS011;36879;51.416;6.678;2023-02-28T12:42:45;2.58;;;1.52;;
50900;SDS011;36879;51.416;6.678;2023-02-28T12:45:17;2.92;;;1.20;;
50900;SDS011;36879;51.416;6.678;2023-02-28T12:47:44;2.35;;;1.40;;
50900;SDS011;36879;51.416;6.678;2023-02-28T12:50:12;3.15;;;1.42;;
50900;SDS011;36879;51.416;6.678;2023-02-28T12:52:51;2.65;;;1.40;;
50900;SDS011;36879;51.416;6.678;2023-02-28T13:00:43;2.67;;;1.50;;
50900;SDS011;36879;51.416;6.678;2023-02-28T13:08:25;2.95;;;1.45;;
50900;SDS011;36879;51.416;6.678;2023-02-28T13:10:59;6.45;;;1.45;;
50900;SDS011;36879;51.416;6.678;2023-02-28T13:13:29;3.58;;;1.67;;
50900;SDS011;36879;51.416;6.678;2023-02-28T13:18:28;3.33;;;1.35;;
50900;SDS011;36879;51.416;6.678;2023-02-28T13:20:55;3.53;;;1.55;;
50900;SDS011;36879;51.416;6.678;2023-02-28T13:23:38;2.75;;;1.50;;
50900;SDS011;36879;51.416;6.678;2023-02-28T13:26:04;4.50;;;1.63;;
50900;SDS011;36879;51.416;6.678;2023-02-28T13:31:15;4.60;;;1.75;;
50900;SDS011;36879;51.416;6.678;2023-02-28T13:39:11;5.38;;;1.95;;
50900;SDS011;36879;51.416;6.678;2023-02-28T13:41:46;2.80;;;1.50;;
50900;SDS011;36879;51.416;6.678;2023-02-28T13:44:16;3.50;;;1.50;;
50900;SDS011;36879;51.416;6.678;2023-02-28T13:49:32;4.53;;;2.20;;
50900;SDS011;36879;51.416;6.678;2023-02-28T13:57:27;4.20;;;2.13;;
50900;SDS011;36879;51.416;6.678;2023-02-28T14:00:02;3.63;;;1.60;;
50900;SDS011;36879;51.416;6.678;2023-02-28T14:05:01;2.45;;;1.70;;
50900;SDS011;36879;51.416;6.678;2023-02-28T14:07:30;6.22;;;3.78;;
50900;SDS011;36879;51.416;6.678;2023-02-28T14:09:59;4.70;;;2.10;;
50900;SDS011;36879;51.416;6.678;2023-02-28T14:20:52;5.50;;;2.05;;
50900;SDS011;36879;51.416;6.678;2023-02-28T14:28:40;4.63;;;2.38;;
50900;SDS011;36879;51.416;6.678;2023-02-28T14:31:10;2.80;;;2.00;;
50900;SDS011;36879;51.416;6.678;2023-02-28T14:36:17;3.30;;;2.22;;
50900;SDS011;36879;51.416;6.678;2023-02-28T14:38:51;6.97;;;1.65;;
50900;SDS011;36879;51.416;6.678;2023-02-28T14:41:20;2.85;;;1.95;;
50900;SDS011;36879;51.416;6.678;2023-02-28T14:43:54;3.60;;;1.83;;
50900;SDS011;36879;51.416;6.678;2023-02-28T14:46:20;3.00;;;2.10;;
50900;SDS011;36879;51.416;6.678;2023-02-28T14:48:48;3.97;;;2.10;;
50900;SDS011;36879;51.416;6.678;2023-02-28T14:51:18;4.63;;;2.40;;
50900;SDS011;36879;51.416;6.678;2023-02-28T14:53:47;3.17;;;1.70;;
50900;SDS011;36879;51.416;6.678;2023-02-28T14:56:19;3.90;;;2.08;;
50900;SDS011;36879;51.416;6.678;2023-02-28T14:58:50;4.20;;;2.17;;
50900;SDS011;36879;51.416;6.678;2023-02-28T15:01:18;3.95;;;2.13;;
50900;SDS011;36879;51.416;6.678;2023-02-28T15:03:44;3.22;;;2.22;;
50900;SDS011;36879;51.416;6.678;2023-02-28T15:06:13;4.15;;;2.03;;
50900;SDS011;36879;51.416;6.678;2023-02-28T15:08:39;3.17;;;2.75;;
50900;SDS011;36879;51.416;6.678;2023-02-28T15:11:13;4.82;;;2.38;;
50900;SDS011;36879;51.416;6.678;2023-02-28T15:13:40;3.53;;;2.20;;
50900;SDS011;36879;51.416;6.678;2023-02-28T15:16:12;6.03;;;2.40;;
50900;SDS011;36879;51.416;6.678;2023-02-28T15:21:06;4.32;;;2.47;;
50900;SDS011;36879;51.416;6.678;2023-02-28T15:23:34;4.53;;;2.03;;
50900;SDS011;36879;51.416;6.678;2023-02-28T15:26:00;5.38;;;2.92;;
50900;SDS011;36879;51.416;6.678;2023-02-28T15:28:27;6.28;;;2.03;;
50900;SDS011;36879;51.416;6.678;2023-02-28T15:30:58;3.58;;;1.95;;
50900;SDS011;36879;51.416;6.678;2023-02-28T15:33:25;2.78;;;2.20;;
50900;SDS011;36879;51.416;6.678;2023-02-28T15:36:02;4.05;;;1.92;;
50900;SDS011;36879;51.416;6.678;2023-02-28T15:38:28;5.15;;;2.63;;
50900;SDS011;36879;51.416;6.678;2023-02-28T15:40:55;4.40;;;2.10;;
50900;SDS011;36879;51.416;6.678;2023-02-28T15:43:26;4.45;;;2.60;;
50900;SDS011;36879;51.416;6.678;2023-02-28T15:56:31;3.13;;;2.37;;
50900;SDS011;36879;51.416;6.678;2023-02-28T15:59:02;4.43;;;2.55;;
50900;SDS011;36879;51.416;6.678;2023-02-28T16:01:29;2.50;;;2.30;;
50900;SDS011;36879;51.416;6.678;2023-02-28T16:04:01;3.83;;;2.20;;
50900;SDS011;36879;51.416;6.678;2023-02-28T16:42:41;5.28;;;2.28;;
50900;SDS011;36879;51.416;6.678;2023-02-28T16:45:11;4.28;;;2.40;;
50900;SDS011;36879;51.416;6.678;2023-02-28T16:47:40;4.05;;;2.42;;
50900;SDS011;36879;51.416;6.678;2023-02-28T16:50:13;4.47;;;2.60;;
50900;SDS011;36879;51.416;6.678;2023-02-28T16:52:40;5.80;;;2.75;;
50900;SDS011;36879;51.416;6.678;2023-02-28T16:55:06;6.18;;;2.50;;
50900;SDS011;36879;51.416;6.678;2023-02-28T16:57:32;4.05;;;2.05;;
50900;SDS011;36879;51.416;6.678;2023-02-28T16:59:58;4.53;;;2.72;;
50900;SDS011;36879;51.416;6.678;2023-02-28T17:02:24;4.53;;;2.40;;
50900;SDS011;36879;51.416;6.678;2023-02-28T17:04:50;5.22;;;2.80;;
50900;SDS011;36879;51.416;6.678;2023-02-28T17:07:16;4.45;;;2.42;;
50900;SDS011;36879;51.416;6.678;2023-02-28T17:09:42;4.85;;;2.85;;
50900;SDS011;36879;51.416;6.678;2023-02-28T17:12:09;5.68;;;2.55;;
50900;SDS011;36879;51.416;6.678;2023-02-28T17:14:36;4.53;;;2.95;;
50900;SDS011;36879;51.416;6.678;2023-02-28T17:17:02;4.90;;;2.50;;
50900;SDS011;36879;51.416;6.678;2023-02-28T17:19:29;4.95;;;3.13;;
50900;SDS011;36879;51.416;6.678;2023-02-28T17:21:55;5.40;;;2.65;;
50900;SDS011;36879;51.416;6.678;2023-02-28T17:24:21;6.82;;;3.40;;
50900;SDS011;36879;51.416;6.678;2023-02-28T17:26:47;4.63;;;2.67;;
50900;SDS011;36879;51.416;6.678;2023-02-28T17:29:18;3.70;;;2.58;;
50900;SDS011;36879;51.416;6.678;2023-02-28T17:31:44;5.65;;;3.05;;
50900;SDS011;36879;51.416;6.678;2023-02-28T17:34:10;6.00;;;2.55;;
50900;SDS011;36879;51.416;6.678;2023-02-28T17:36:36;3.95;;;2.83;;
50900;SDS011;36879;51.416;6.678;2023-02-28T17:39:03;5.53;;;2.80;;
50900;SDS011;36879;51.416;6.678;2023-02-28T17:41:29;5.05;;;2.97;;
50900;SDS011;36879;51.416;6.678;2023-02-28T17:43:56;6.53;;;3.42;;
50900;SDS011;36879;51.416;6.678;2023-02-28T17:46:23;6.43;;;3.45;;
50900;SDS011;36879;51.416;6.678;2023-02-28T17:48:49;5.68;;;2.70;;
50900;SDS011;36879;51.416;6.678;2023-02-28T17:51:16;4.95;;;2.45;;
50900;SDS011;36879;51.416;6.678;2023-02-28T17:53:42;8.18;;;3.28;;
50900;SDS011;36879;51.416;6.678;2023-02-28T17:56:18;5.10;;;2.75;;
50900;SDS011;36879;51.416;6.678;2023-02-28T17:58:44;4.70;;;2.95;;
50900;SDS011;36879;51.416;6.678;2023-02-28T18:01:10;6.90;;;2.95;;
50900;SDS011;36879;51.416;6.678;2023-02-28T18:03:37;5.20;;;3.40;;
50900;SDS011;36879;51.416;6.678;2023-02-28T18:06:03;6.70;;;3.38;;
50900;SDS011;36879;51.416;6.678;2023-02-28T18:08:29;8.20;;;3.63;;